Ever Delight — 3FCB8 — position and weather

sailwx.info

Track history (hours):
 
Tides and Currents Weather Stations Pressure Air Temp Water Temp Dewpoint Dewpoint Depression Visibility Wind Speed Wind Dir Waves Ship Positions

Ever Delight

Last reported at 2017-Nov-19 18:57 UTC. Time now 2017-Dec-18 01:28 UTC.
Position N 01°14' E 103°25'.
Warning: this ship's position is 28 days out of date.

Type: Cargo ship. MMSI: 351936000.

Date/timePositionNaut miles runAvg speedWind from/ knotsBaromVisibWave heightAir tempDewpointWater temp
2017-Nov-19 18:57N 01°14' E 103°25'612.8
2017-Nov-19 18:30N 01°12' E 103°30'612.5
2017-Nov-19 18:01N 01°11' E 103°37'4 8.4
2017-Nov-19 17:30N 01°13' E 103°40'611.8
2017-Nov-19 17:01N 01°16' E 103°45'2 2.9
2017-Nov-19 16:26N 01°15' E 103°47'0 0.0
2017-Nov-19 15:59N 01°15' E 103°47'0 0.0
2017-Nov-19 15:29N 01°15' E 103°47'0 0.0
2017-Nov-19 14:59N 01°15' E 103°47'0 0.0
2017-Nov-19 14:20N 01°15' E 103°47'0 0.0
2017-Nov-19 13:45N 01°15' E 103°47'0 0.0
2017-Nov-19 13:29N 01°15' E 103°47'0 0.0
2017-Nov-19 12:59N 01°15' E 103°47'0 0.0
2017-Nov-19 12:28N 01°15' E 103°47'0 0.0
2017-Nov-19 11:58N 01°15' E 103°47'0 0.0
2017-Nov-19 11:28N 01°15' E 103°47'0 0.0
2017-Nov-19 10:59N 01°15' E 103°47'0 0.0
2017-Nov-19 10:22N 01°15' E 103°47'0 0.0
2017-Nov-19 10:01N 01°15' E 103°47'0 0.0
2017-Nov-19 09:30N 01°15' E 103°47'0 0.0
2017-Nov-19 09:01N 01°15' E 103°47'0 0.0
2017-Nov-19 08:31N 01°15' E 103°47'0 0.0
2017-Nov-19 08:01N 01°15' E 103°47'0 0.0
2017-Nov-19 07:30N 01°15' E 103°47'0 0.0
2017-Nov-19 07:01N 01°15' E 103°47'0 0.0
2017-Nov-19 06:31N 01°15' E 103°47'0 0.0
2017-Nov-19 06:01N 01°15' E 103°47'0 0.0
2017-Nov-19 05:31N 01°15' E 103°47'0 0.0
2017-Nov-19 05:01N 01°15' E 103°47'0 0.0
2017-Nov-19 04:30N 01°15' E 103°47'0 0.0
2017-Nov-19 03:58N 01°15' E 103°47'0 0.0
2017-Nov-19 03:19N 01°15' E 103°47'0 0.0
2017-Nov-19 03:01N 01°15' E 103°47'0 0.0
2017-Nov-19 02:31N 01°15' E 103°47'0 0.2
2017-Nov-19 02:00N 01°15' E 103°47'0 0.6
2017-Nov-19 01:30N 01°15' E 103°47'1 1.6
2017-Nov-19 01:00N 01°14' E 103°47'0 0.1
2017-Nov-19 00:29N 01°14' E 103°47'0 0.1
2017-Nov-18 23:59N 01°14' E 103°47'0 0.0
2017-Nov-18 23:29N 01°14' E 103°47'0 0.2
2017-Nov-18 22:59N 01°14' E 103°47'0 0.0
2017-Nov-18 22:29N 01°14' E 103°47'0 0.0
2017-Nov-18 21:59N 01°14' E 103°47'0 0.0
2017-Nov-18 21:26N 01°14' E 103°47'0 0.0
2017-Nov-18 20:59N 01°14' E 103°47'0 0.0
2017-Nov-18 20:29N 01°14' E 103°47'0 0.0
2017-Nov-18 19:59N 01°14' E 103°47'0 0.0
2017-Nov-18 19:29N 01°14' E 103°47'0 0.1
2017-Nov-18 18:59N 01°14' E 103°47'0 0.0
2017-Nov-18 18:26N 01°14' E 103°47'0 0.1
2017-Nov-18 17:59N 01°14' E 103°47'0 0.0
2017-Nov-18 17:29N 01°14' E 103°47'0 0.1
2017-Nov-18 17:00N 01°14' E 103°47'3 5.2
2017-Nov-18 16:30N 01°15' E 103°45'611.7
2017-Nov-18 16:01N 01°12' E 103°39'4 8.1
2017-Nov-18 15:30N 01°12' E 103°35'2 4.5
2017-Nov-18 15:00N 01°12' E 103°33'3 5.0
2017-Nov-18 14:30N 01°10' E 103°32'1 1.2
2017-Nov-18 14:00N 01°10' E 103°33'1 1.4
2017-Nov-18 13:30N 01°11' E 103°32'1 1.0
2017-Nov-18 12:59N 01°10' E 103°32'0 0.8
2017-Nov-18 12:30N 01°10' E 103°31'1 2.3
2017-Nov-18 12:00N 01°11' E 103°31'4 7.3
2017-Nov-18 11:30N 01°15' E 103°32'4 8.7
2017-Nov-18 11:00N 01°19' E 103°33'2 4.5
2017-Nov-18 10:30N 01°21' E 103°33'0 0.1
2017-Nov-18 09:58N 01°21' E 103°33'0 0.1
2017-Nov-18 09:22N 01°21' E 103°33'0 0.1
2017-Nov-18 08:16N 01°21' E 103°33'0 0.0
2017-Nov-18 07:58N 01°21' E 103°33'0 0.0
2017-Nov-18 05:37N 01°21' E 103°33'0 0.0
2017-Nov-18 05:22N 01°21' E 103°33'0 0.0
2017-Nov-18 04:58N 01°21' E 103°33'0 0.0
2017-Nov-18 04:28N 01°21' E 103°33'0 0.0
2017-Nov-18 03:55N 01°21' E 103°33'0 0.1
2017-Nov-18 03:28N 01°21' E 103°33'0 0.1
2017-Nov-18 02:52N 01°21' E 103°33'0 0.0
2017-Nov-18 02:16N 01°21' E 103°33'0 0.2
2017-Nov-18 01:55N 01°21' E 103°33'0 0.0
2017-Nov-18 01:25N 01°21' E 103°33'0 0.0
2017-Nov-18 00:58N 01°21' E 103°33'0 0.0
2017-Nov-18 00:28N 01°21' E 103°33'0 0.0
2017-Nov-17 23:58N 01°21' E 103°33'0 0.0
2017-Nov-17 23:28N 01°21' E 103°33'0 0.0
2017-Nov-17 22:43N 01°21' E 103°33'0 0.0
2017-Nov-17 22:13N 01°21' E 103°33'0 0.1
2017-Nov-17 21:58N 01°21' E 103°33'0 0.0
2017-Nov-17 21:28N 01°21' E 103°33'0 0.0
2017-Nov-17 20:55N 01°21' E 103°33'0 0.0
2017-Nov-17 20:10N 01°21' E 103°33'0 0.0
2017-Nov-17 19:58N 01°21' E 103°33'2 4.4
2017-Nov-17 19:30N 01°19' E 103°33'510.8
2017-Nov-17 19:00N 01°14' E 103°32'3 6.6
2017-Nov-17 18:30N 01°11' E 103°31'0 0.2
2017-Nov-17 18:00N 01°11' E 103°32'0 0.4
2017-Nov-17 17:31N 01°11' E 103°31'2 2.4
2017-Nov-17 16:51N 01°09' E 103°31'1 2.0
2017-Nov-17 16:31N 01°10' E 103°31'1 2.0
2017-Nov-17 16:01N 01°10' E 103°30'3 6.6
2017-Nov-17 15:30N 01°10' E 103°27'3 5.8
2017-Nov-17 15:00N 01°11' E 103°25'4 7.0
2017-Nov-17 14:25N 01°14' E 103°21'4 7.5
2017-Nov-17 13:53N 01°16' E 103°18'  
Track history (hours):
 
Tides and Currents Weather Stations Pressure Air Temp Water Temp Dewpoint Dewpoint Depression Visibility Wind Speed Wind Dir Waves Ship Positions

Ever Delight

Last reported at 2017-Nov-19 18:57 UTC. Time now 2017-Dec-18 01:28 UTC.
Position N 01°14' E 103°25'.
Warning: this ship's position is 28 days out of date.

Type: Cargo ship. MMSI: 351936000.

Date/timePositionNaut miles runAvg speedWind from/ knotsBaromVisibWave heightAir tempDewpointWater temp
2017-Nov-19 18:57N 01°14' E 103°25'612.8
2017-Nov-19 18:30N 01°12' E 103°30'612.5
2017-Nov-19 18:01N 01°11' E 103°37'4 8.4
2017-Nov-19 17:30N 01°13' E 103°40'611.8
2017-Nov-19 17:01N 01°16' E 103°45'2 2.9
2017-Nov-19 16:26N 01°15' E 103°47'0 0.0
2017-Nov-19 15:59N 01°15' E 103°47'0 0.0
2017-Nov-19 15:29N 01°15' E 103°47'0 0.0
2017-Nov-19 14:59N 01°15' E 103°47'0 0.0
2017-Nov-19 14:20N 01°15' E 103°47'0 0.0
2017-Nov-19 13:45N 01°15' E 103°47'0 0.0
2017-Nov-19 13:29N 01°15' E 103°47'0 0.0
2017-Nov-19 12:59N 01°15' E 103°47'0 0.0
2017-Nov-19 12:28N 01°15' E 103°47'0 0.0
2017-Nov-19 11:58N 01°15' E 103°47'0 0.0
2017-Nov-19 11:28N 01°15' E 103°47'0 0.0
2017-Nov-19 10:59N 01°15' E 103°47'0 0.0
2017-Nov-19 10:22N 01°15' E 103°47'0 0.0
2017-Nov-19 10:01N 01°15' E 103°47'0 0.0
2017-Nov-19 09:30N 01°15' E 103°47'0 0.0
2017-Nov-19 09:01N 01°15' E 103°47'0 0.0
2017-Nov-19 08:31N 01°15' E 103°47'0 0.0
2017-Nov-19 08:01N 01°15' E 103°47'0 0.0
2017-Nov-19 07:30N 01°15' E 103°47'0 0.0
2017-Nov-19 07:01N 01°15' E 103°47'0 0.0
2017-Nov-19 06:31N 01°15' E 103°47'0 0.0
2017-Nov-19 06:01N 01°15' E 103°47'0 0.0
2017-Nov-19 05:31N 01°15' E 103°47'0 0.0
2017-Nov-19 05:01N 01°15' E 103°47'0 0.0
2017-Nov-19 04:30N 01°15' E 103°47'0 0.0
2017-Nov-19 03:58N 01°15' E 103°47'0 0.0
2017-Nov-19 03:19N 01°15' E 103°47'0 0.0
2017-Nov-19 03:01N 01°15' E 103°47'0 0.0
2017-Nov-19 02:31N 01°15' E 103°47'0 0.2
2017-Nov-19 02:00N 01°15' E 103°47'0 0.6
2017-Nov-19 01:30N 01°15' E 103°47'1 1.6
2017-Nov-19 01:00N 01°14' E 103°47'0 0.1
2017-Nov-19 00:29N 01°14' E 103°47'0 0.1
2017-Nov-18 23:59N 01°14' E 103°47'0 0.0
2017-Nov-18 23:29N 01°14' E 103°47'0 0.2
2017-Nov-18 22:59N 01°14' E 103°47'0 0.0
2017-Nov-18 22:29N 01°14' E 103°47'0 0.0
2017-Nov-18 21:59N 01°14' E 103°47'0 0.0
2017-Nov-18 21:26N 01°14' E 103°47'0 0.0
2017-Nov-18 20:59N 01°14' E 103°47'0 0.0
2017-Nov-18 20:29N 01°14' E 103°47'0 0.0
2017-Nov-18 19:59N 01°14' E 103°47'0 0.0
2017-Nov-18 19:29N 01°14' E 103°47'0 0.1
2017-Nov-18 18:59N 01°14' E 103°47'0 0.0
2017-Nov-18 18:26N 01°14' E 103°47'0 0.1
2017-Nov-18 17:59N 01°14' E 103°47'0 0.0
2017-Nov-18 17:29N 01°14' E 103°47'0 0.1
2017-Nov-18 17:00N 01°14' E 103°47'3 5.2
2017-Nov-18 16:30N 01°15' E 103°45'611.7
2017-Nov-18 16:01N 01°12' E 103°39'4 8.1
2017-Nov-18 15:30N 01°12' E 103°35'2 4.5
2017-Nov-18 15:00N 01°12' E 103°33'3 5.0
2017-Nov-18 14:30N 01°10' E 103°32'1 1.2
2017-Nov-18 14:00N 01°10' E 103°33'1 1.4
2017-Nov-18 13:30N 01°11' E 103°32'1 1.0
2017-Nov-18 12:59N 01°10' E 103°32'0 0.8
2017-Nov-18 12:30N 01°10' E 103°31'1 2.3
2017-Nov-18 12:00N 01°11' E 103°31'4 7.3
2017-Nov-18 11:30N 01°15' E 103°32'4 8.7
2017-Nov-18 11:00N 01°19' E 103°33'2 4.5
2017-Nov-18 10:30N 01°21' E 103°33'0 0.1
2017-Nov-18 09:58N 01°21' E 103°33'0 0.1
2017-Nov-18 09:22N 01°21' E 103°33'0 0.1
2017-Nov-18 08:16N 01°21' E 103°33'0 0.0
2017-Nov-18 07:58N 01°21' E 103°33'0 0.0
2017-Nov-18 05:37N 01°21' E 103°33'0 0.0
2017-Nov-18 05:22N 01°21' E 103°33'0 0.0
2017-Nov-18 04:58N 01°21' E 103°33'0 0.0
2017-Nov-18 04:28N 01°21' E 103°33'0 0.0
2017-Nov-18 03:55N 01°21' E 103°33'0 0.1
2017-Nov-18 03:28N 01°21' E 103°33'0 0.1
2017-Nov-18 02:52N 01°21' E 103°33'0 0.0
2017-Nov-18 02:16N 01°21' E 103°33'0 0.2
2017-Nov-18 01:55N 01°21' E 103°33'0 0.0
2017-Nov-18 01:25N 01°21' E 103°33'0 0.0
2017-Nov-18 00:58N 01°21' E 103°33'0 0.0
2017-Nov-18 00:28N 01°21' E 103°33'0 0.0
2017-Nov-17 23:58N 01°21' E 103°33'0 0.0
2017-Nov-17 23:28N 01°21' E 103°33'0 0.0
2017-Nov-17 22:43N 01°21' E 103°33'0 0.0
2017-Nov-17 22:13N 01°21' E 103°33'0 0.1
2017-Nov-17 21:58N 01°21' E 103°33'0 0.0
2017-Nov-17 21:28N 01°21' E 103°33'0 0.0
2017-Nov-17 20:55N 01°21' E 103°33'0 0.0
2017-Nov-17 20:10N 01°21' E 103°33'0 0.0
2017-Nov-17 19:58N 01°21' E 103°33'2 4.4
2017-Nov-17 19:30N 01°19' E 103°33'510.8
2017-Nov-17 19:00N 01°14' E 103°32'3 6.6
2017-Nov-17 18:30N 01°11' E 103°31'0 0.2
2017-Nov-17 18:00N 01°11' E 103°32'0 0.4
2017-Nov-17 17:31N 01°11' E 103°31'2 2.4
2017-Nov-17 16:51N 01°09' E 103°31'1 2.0
2017-Nov-17 16:31N 01°10' E 103°31'1 2.0
2017-Nov-17 16:01N 01°10' E 103°30'3 6.6
2017-Nov-17 15:30N 01°10' E 103°27'3 5.8
2017-Nov-17 15:00N 01°11' E 103°25'4 7.0
2017-Nov-17 14:25N 01°14' E 103°21'4 7.5
2017-Nov-17 13:53N 01°16' E 103°18'  

Dump ship's entire track history